Time;durP1;ratioP1;P1;durP2;ratioP2;P2;SDS_P1;SDS_P2;PMS_P1;PMS_P2;Temp;Humidity;BMP_temperature;BMP_pressure;BME280_temperature;BME280_humidity;BME280_pressure;Samples;Min_cycle;Max_cycle;Signal;HPM_P1;HPM_P2
2023/03/20 00:02:23;;;;;;;44.30;39.70;;;;;;;5.12;61.05;97880.09;108981;1295;22206;-82
2023/03/20 00:04:51;;;;;;;44.40;39.90;;;;;;;5.07;61.69;97879.70;108965;1295;22221;-82
2023/03/20 00:07:20;;;;;;;47.40;42.60;;;;;;;4.99;61.28;97876.20;108991;1295;22280;-83
2023/03/20 00:09:48;;;;;;;45.90;41.30;;;;;;;4.95;61.09;97875.23;108973;1295;22267;-83
2023/03/20 00:12:23;;;;;;;46.90;42.30;;;;;;;4.91;61.42;97869.56;109014;1295;22924;-82
2023/03/20 00:14:51;;;;;;;44.40;40.00;;;;;;;4.91;61.20;97866.89;109009;1295;22273;-82
2023/03/20 00:17:20;;;;;;;46.30;41.80;;;;;;;4.90;61.62;97867.73;108983;1295;22913;-82
2023/03/20 00:19:48;;;;;;;47.30;42.40;;;;;;;4.89;61.35;97866.95;108929;1295;22224;-82
2023/03/20 00:22:16;;;;;;;44.60;40.10;;;;;;;4.91;61.52;97864.48;109009;1295;22225;-82
2023/03/20 00:24:44;;;;;;;44.80;40.20;;;;;;;4.93;61.59;97864.06;109000;1296;22201;-82
2023/03/20 00:27:14;;;;;;;45.10;39.20;;;;;;;4.97;62.84;97861.30;108996;1295;22133;-82
2023/03/20 00:29:43;;;;;;;51.40;46.10;;;;;;;4.90;63.94;97861.06;109003;1295;22209;-82
2023/03/20 00:32:12;;;;;;;56.20;50.80;;;;;;;4.83;63.70;97863.39;108991;1295;22131;-82
2023/03/20 00:34:41;;;;;;;48.10;43.30;;;;;;;4.78;63.69;97865.24;108983;1295;22145;-82
2023/03/20 00:37:10;;;;;;;47.80;43.00;;;;;;;4.67;63.03;97861.36;109074;1295;22238;-83
2023/03/20 00:39:39;;;;;;;46.30;41.50;;;;;;;4.65;63.46;97862.52;108978;1295;22211;-82
2023/03/20 00:42:17;;;;;;;47.30;42.30;;;;;;;4.56;64.03;97858.59;108967;1295;22239;-82
2023/03/20 00:44:53;;;;;;;46.70;41.90;;;;;;;4.48;63.67;97853.64;108943;1296;22229;-82
2023/03/20 00:47:24;;;;;;;47.80;42.90;;;;;;;4.42;63.40;97851.86;108953;1295;23417;-83
2023/03/20 00:49:54;;;;;;;49.70;44.50;;;;;;;4.40;63.51;97854.35;108985;1295;22212;-82
2023/03/20 00:52:25;;;;;;;47.80;43.00;;;;;;;4.40;63.24;97859.53;108988;1295;22973;-82
2023/03/20 00:54:53;;;;;;;43.10;38.60;;;;;;;4.42;63.67;97856.39;108989;1295;22249;-83
2023/03/20 00:57:44;;;;;;;44.30;39.60;;;;;;;4.47;63.77;97854.92;109039;1295;22171;-83
2023/03/20 01:00:33;;;;;;;44.80;40.30;;;;;;;4.52;64.07;97857.02;108980;1295;22998;-83
2023/03/20 01:03:09;;;;;;;42.60;38.50;;;;;;;4.57;64.06;97858.27;109050;1295;22399;-83
2023/03/20 01:05:37;;;;;;;44.40;39.80;;;;;;;4.63;64.02;97859.48;108963;1295;22191;-82
2023/03/20 01:08:12;;;;;;;68.90;60.80;;;;;;;4.65;63.92;97854.42;109000;1295;22162;-83
2023/03/20 01:10:41;;;;;;;50.20;45.10;;;;;;;4.62;64.47;97854.82;108986;1291;22188;-83
2023/03/20 01:13:26;;;;;;;47.20;42.30;;;;;;;4.56;64.40;97855.48;109129;1295;22296;-82
2023/03/20 01:15:56;;;;;;;47.10;42.30;;;;;;;4.49;64.70;97854.35;109086;1296;22040;-83
2023/03/20 01:18:26;;;;;;;45.90;41.30;;;;;;;4.45;64.57;97850.54;109304;1296;22758;-83
2023/03/20 01:20:54;;;;;;;45.70;41.20;;;;;;;4.41;65.42;97852.00;109285;1295;22149;-83
2023/03/20 01:23:23;;;;;;;48.60;43.70;;;;;;;4.32;65.27;97849.19;109318;1295;22212;-83
2023/03/20 01:25:51;;;;;;;53.00;47.50;;;;;;;4.27;65.18;97845.43;109387;1295;22214;-85
2023/03/20 01:28:23;;;;;;;46.10;41.40;;;;;;;4.28;65.09;97844.64;108955;1295;22217;-84
2023/03/20 01:30:51;;;;;;;47.20;42.20;;;;;;;4.34;65.26;97846.64;108966;1296;22887;-83
2023/03/20 01:33:24;;;;;;;50.10;45.00;;;;;;;4.39;65.36;97849.23;108965;1295;22142;-84
2023/03/20 01:35:56;;;;;;;51.10;45.90;;;;;;;4.41;65.22;97849.73;108965;1295;22881;-83
2023/03/20 01:38:26;;;;;;;53.80;48.40;;;;;;;4.43;65.34;97848.29;108946;1296;22227;-83
2023/03/20 01:41:02;;;;;;;56.40;50.70;;;;;;;4.44;65.70;97848.83;108965;1295;22211;-83
2023/03/20 01:43:33;;;;;;;60.40;54.20;;;;;;;4.44;65.37;97850.41;109035;1295;22096;-83
2023/03/20 01:46:09;;;;;;;60.00;53.80;;;;;;;4.41;65.99;97847.47;108968;1295;22239;-83
2023/03/20 01:48:50;;;;;;;57.90;52.10;;;;;;;4.32;66.51;97852.34;108957;1295;22199;-83
2023/03/20 01:51:22;;;;;;;54.40;48.80;;;;;;;4.28;66.43;97854.73;108961;1295;22235;-82
2023/03/20 01:54:01;;;;;;;53.90;48.40;;;;;;;4.22;67.18;97853.47;109061;1295;22873;-83
2023/03/20 01:56:34;;;;;;;48.80;43.60;;;;;;;4.28;66.89;97857.81;109085;1295;22967;-83
2023/03/20 01:59:12;;;;;;;46.10;41.30;;;;;;;4.33;66.64;97854.96;109053;1295;22151;-83
2023/03/20 02:02:36;;;;;;;46.70;41.60;;;;;;;4.47;67.85;97856.30;108917;1295;22897;-84
2023/03/20 02:05:09;;;;;;;48.40;43.50;;;;;;;4.54;67.26;97858.09;108938;1295;22974;-84
2023/03/20 02:07:38;;;;;;;48.20;43.40;;;;;;;4.51;67.39;97856.70;108953;1295;21861;-84
2023/03/20 02:10:13;;;;;;;49.20;44.10;;;;;;;4.50;67.67;97856.05;109058;1295;22212;-84
2023/03/20 02:12:54;;;;;;;50.70;45.30;;;;;;;4.48;68.72;97858.12;108987;1295;22346;-84
2023/03/20 02:15:30;;;;;;;49.50;44.50;;;;;;;4.42;68.65;97857.63;108958;1295;22219;-83
2023/03/20 02:18:19;;;;;;;46.20;41.60;;;;;;;4.39;68.36;97856.38;108988;1295;22268;-83
2023/03/20 02:21:09;;;;;;;45.70;40.90;;;;;;;4.42;68.09;97856.71;109020;1295;22796;-83
2023/03/20 02:24:07;;;;;;;48.40;43.30;;;;;;;4.45;69.16;97855.61;108962;1295;22132;-84
2023/03/20 02:26:43;;;;;;;45.80;41.20;;;;;;;4.45;69.07;97856.58;108586;1295;22218;-83
2023/03/20 02:29:20;;;;;;;50.20;45.00;;;;;;;4.46;68.69;97850.44;108978;1295;22293;-83
2023/03/20 02:32:04;;;;;;;46.30;41.40;;;;;;;4.50;68.08;97851.95;109073;1295;22139;-84
2023/03/20 02:34:57;;;;;;;48.40;43.70;;;;;;;4.55;67.86;97853.58;108991;1295;23048;-84
2023/03/20 02:37:53;;;;;;;53.50;48.10;;;;;;;4.57;68.33;97852.46;108967;1295;22274;-83
2023/03/20 02:40:40;;;;;;;50.10;44.80;;;;;;;4.57;68.03;97850.80;109060;1296;22147;-83
2023/03/20 02:43:21;;;;;;;46.20;41.40;;;;;;;4.56;68.28;97846.16;109104;1295;22222;-84
2023/03/20 02:45:54;;;;;;;53.70;48.40;;;;;;;4.59;68.78;97846.23;108996;1295;22189;-83
2023/03/20 02:48:47;;;;;;;51.10;45.70;;;;;;;4.63;68.63;97842.61;109041;1295;22287;-83
2023/03/20 02:51:35;;;;;;;47.20;42.60;;;;;;;4.71;68.81;97840.29;109048;1295;22255;-83
2023/03/20 02:54:06;;;;;;;45.90;41.30;;;;;;;4.75;69.31;97838.38;109108;1295;22868;-83
2023/03/20 02:56:57;;;;;;;47.50;42.70;;;;;;;4.76;69.33;97839.77;109049;1295;22178;-83
2023/03/20 02:59:58;;;;;;;49.40;44.50;;;;;;;4.76;69.38;97839.77;108944;1295;22223;-83
2023/03/20 03:02:36;;;;;;;52.00;46.80;;;;;;;4.76;70.04;97841.11;108536;1298;22206;-83
2023/03/20 03:05:15;;;;;;;48.60;43.50;;;;;;;4.76;69.65;97836.94;108514;1301;22903;-83
2023/03/20 03:07:45;;;;;;;42.80;38.50;;;;;;;4.77;69.88;97838.80;108505;1300;22170;-83
2023/03/20 03:10:20;;;;;;;45.20;40.50;;;;;;;4.81;69.58;97838.07;108528;1300;22915;-83
2023/03/20 03:12:51;;;;;;;45.30;40.70;;;;;;;4.84;69.30;97843.84;108522;1300;22153;-83
2023/03/20 03:15:33;;;;;;;44.00;39.10;;;;;;;4.85;69.58;97840.97;108474;1300;22292;-83
2023/03/20 03:18:05;;;;;;;44.00;39.50;;;;;;;4.84;69.50;97840.55;108522;1300;22251;-82
2023/03/20 03:20:37;;;;;;;48.70;43.70;;;;;;;4.83;69.69;97841.45;108524;1300;22227;-82
2023/03/20 03:23:06;;;;;;;54.10;48.90;;;;;;;4.82;70.10;97839.69;108542;1300;22967;-82
2023/03/20 03:25:40;;;;;;;49.90;44.70;;;;;;;4.81;69.84;97834.83;108519;1300;22835;-82
2023/03/20 03:28:20;;;;;;;48.80;43.90;;;;;;;4.78;69.43;97834.17;108521;1300;22248;-82
2023/03/20 03:30:52;;;;;;;48.40;43.40;;;;;;;4.77;69.10;97834.90;108462;1300;22275;-82
2023/03/20 03:33:28;;;;;;;45.20;40.50;;;;;;;4.80;68.95;97837.32;108514;1300;22959;-82
2023/03/20 03:36:12;;;;;;;47.10;42.30;;;;;;;4.85;68.87;97834.13;108529;1300;22241;-83
2023/03/20 03:38:55;;;;;;;46.30;41.40;;;;;;;4.96;69.15;97832.63;108536;1295;22324;-83
2023/03/20 03:41:35;;;;;;;46.80;42.00;;;;;;;5.06;69.15;97833.38;108994;1295;22191;-83
2023/03/20 03:44:10;;;;;;;46.40;41.30;;;;;;;5.10;69.19;97826.93;108986;1295;22235;-83
2023/03/20 03:46:48;;;;;;;48.50;43.30;;;;;;;5.08;69.20;97827.29;109017;1295;22149;-82
2023/03/20 03:49:28;;;;;;;47.90;43.00;;;;;;;5.10;69.05;97828.42;108972;1295;22983;-82
2023/03/20 03:52:02;;;;;;;52.70;47.50;;;;;;;5.15;69.06;97826.83;109012;1295;23026;-81
2023/03/20 03:54:35;;;;;;;50.20;45.10;;;;;;;5.17;69.01;97828.86;109062;1295;22122;-82
2023/03/20 03:57:37;;;;;;;51.00;45.60;;;;;;;5.23;68.99;97825.63;109019;1295;22178;-83
2023/03/20 04:00:10;;;;;;;52.90;47.50;;;;;;;5.34;69.12;97828.66;109091;1295;22887;-83
2023/03/20 04:02:44;;;;;;;51.90;46.60;;;;;;;5.46;68.91;97827.18;109044;1295;22853;-83
2023/03/20 04:05:14;;;;;;;46.30;41.70;;;;;;;5.58;68.72;97831.08;109033;1295;22838;-83
2023/03/20 04:07:46;;;;;;;49.50;44.10;;;;;;;5.66;68.39;97831.02;109027;1295;22280;-82
2023/03/20 04:10:14;;;;;;;48.10;43.10;;;;;;;5.74;68.50;97836.69;108987;1295;22255;-83
2023/03/20 04:12:44;;;;;;;49.70;44.40;;;;;;;5.86;68.32;97837.74;109029;1295;22186;-83
2023/03/20 04:15:14;;;;;;;48.10;42.90;;;;;;;5.95;68.14;97838.73;109021;1295;22212;-83
2023/03/20 04:17:43;;;;;;;46.50;41.80;;;;;;;5.98;67.96;97842.25;108935;1295;22175;-83
2023/03/20 04:20:13;;;;;;;50.80;45.50;;;;;;;5.95;67.71;97843.00;109086;1295;22285;-83
2023/03/20 04:22:41;;;;;;;52.60;46.60;;;;;;;5.97;67.95;97841.79;109005;1295;22178;-83
2023/03/20 04:25:19;;;;;;;48.60;43.60;;;;;;;6.00;67.73;97840.05;108966;1295;22206;-83
2023/03/20 04:27:51;;;;;;;54.70;48.80;;;;;;;6.02;67.74;97839.61;108854;1295;22296;-83
2023/03/20 04:30:26;;;;;;;51.80;46.30;;;;;;;6.04;67.53;97841.77;109112;1295;22231;-82
2023/03/20 04:33:17;;;;;;;48.60;43.60;;;;;;;6.07;67.52;97838.77;109063;1295;23046;-83
2023/03/20 04:36:03;;;;;;;53.50;48.00;;;;;;;6.07;67.17;97837.31;108769;1295;22090;-86
2023/03/20 04:38:31;;;;;;;50.90;45.60;;;;;;;6.08;67.26;97839.45;109072;1295;22167;-86
2023/03/20 04:41:00;;;;;;;52.00;46.00;;;;;;;6.10;67.05;97840.67;108972;1295;22144;-86
2023/03/20 04:43:29;;;;;;;54.50;48.60;;;;;;;6.11;66.96;97842.92;109050;1295;22221;-87
2023/03/20 04:45:59;;;;;;;51.30;46.20;;;;;;;6.11;66.82;97841.42;108934;1295;22286;-84
2023/03/20 04:48:27;;;;;;;51.00;45.60;;;;;;;6.12;66.85;97844.32;108962;1295;22789;-85
2023/03/20 04:50:56;;;;;;;53.10;47.30;;;;;;;6.12;66.85;97846.14;108951;1295;22234;-85
2023/03/20 04:53:30;;;;;;;53.50;47.60;;;;;;;6.14;66.70;97843.98;108940;1295;22217;-85
2023/03/20 04:55:58;;;;;;;50.70;45.60;;;;;;;6.14;66.72;97844.10;109099;1295;22199;-83
2023/03/20 04:58:30;;;;;;;49.70;44.40;;;;;;;6.12;66.37;97847.80;109058;1295;22235;-83
2023/03/20 05:00:59;;;;;;;48.30;43.30;;;;;;;6.10;66.44;97855.45;108943;1295;22256;-84
2023/03/20 05:03:27;;;;;;;52.90;47.60;;;;;;;6.11;66.27;97850.41;108987;1295;23025;-84
2023/03/20 05:05:55;;;;;;;53.70;48.30;;;;;;;6.09;66.18;97850.42;108980;1295;22213;-83
2023/03/20 05:08:24;;;;;;;50.60;45.50;;;;;;;6.06;66.17;97858.77;109048;1295;22154;-84
2023/03/20 05:10:56;;;;;;;50.00;44.80;;;;;;;5.97;65.93;97862.31;109234;1295;22201;-91
2023/03/20 05:13:43;;;;;;;46.80;41.80;;;;;;;5.88;66.26;97862.08;109108;1295;22283;-90
2023/03/20 05:16:21;;;;;;;47.20;42.10;;;;;;;5.85;66.29;97863.09;108881;1295;22931;-88
2023/03/20 05:19:05;;;;;;;50.20;45.10;;;;;;;5.84;66.19;97859.45;109026;1295;22948;-86
2023/03/20 05:22:10;;;;;;;49.20;44.20;;;;;;;5.80;66.16;97862.56;109141;1295;22145;-88
2023/03/20 05:24:56;;;;;;;48.60;43.90;;;;;;;5.78;66.23;97859.67;109071;1295;23058;-89
2023/03/20 05:27:35;;;;;;;48.30;43.20;;;;;;;5.76;66.44;97859.90;108915;1295;22132;-91
2023/03/20 05:30:24;;;;;;;50.20;45.10;;;;;;;5.72;66.32;97861.61;108961;1295;22718;-88
2023/03/20 05:33:10;;;;;;;48.30;43.30;;;;;;;5.68;66.23;97870.16;109176;1295;22908;-84
2023/03/20 05:35:59;;;;;;;48.80;43.80;;;;;;;5.68;66.43;97871.98;108923;1295;22148;-83
2023/03/20 05:38:53;;;;;;;48.60;43.80;;;;;;;5.66;66.12;97870.86;109098;1295;22231;-87
2023/03/20 05:42:30;;;;;;;49.60;44.50;;;;;;;5.66;66.36;97872.56;108996;1295;22864;-86
2023/03/20 05:45:11;;;;;;;48.80;43.40;;;;;;;5.73;66.43;97867.75;108961;1295;23407;-85
2023/03/20 05:47:58;;;;;;;49.60;44.30;;;;;;;5.76;66.35;97870.21;109014;1295;22949;-88
2023/03/20 05:50:46;;;;;;;58.10;52.10;;;;;;;5.79;66.05;97866.46;108974;1295;22974;-88
2023/03/20 05:53:34;;;;;;;56.00;50.40;;;;;;;5.85;66.15;97871.71;109101;1295;22200;-83
2023/03/20 05:56:20;;;;;;;49.00;43.80;;;;;;;5.89;66.08;97870.80;108987;1295;22141;-83
2023/03/20 05:59:01;;;;;;;47.90;43.20;;;;;;;5.94;66.15;97870.66;108945;1295;22442;-84
2023/03/20 06:01:39;;;;;;;47.60;42.80;;;;;;;5.99;66.11;97871.83;109083;1295;22209;-82
2023/03/20 06:04:27;;;;;;;49.10;43.90;;;;;;;6.02;65.88;97874.83;109041;1295;22291;-88
2023/03/20 06:07:14;;;;;;;48.90;43.90;;;;;;;6.05;66.08;97878.45;108994;1295;22972;-85
2023/03/20 06:09:45;;;;;;;44.40;39.10;;;;;;;6.10;66.03;97879.68;108939;1295;23033;-84
2023/03/20 06:12:13;;;;;;;46.50;41.80;;;;;;;6.16;65.94;97882.61;109069;1295;22125;-84
2023/03/20 06:14:42;;;;;;;44.60;40.00;;;;;;;6.24;65.92;97888.98;108880;1295;22925;-84
2023/03/20 06:17:11;;;;;;;43.70;39.30;;;;;;;6.32;65.81;97894.48;108875;1295;22260;-84
2023/03/20 06:19:40;;;;;;;46.80;39.80;;;;;;;6.39;65.84;97893.85;109090;1295;22232;-84
2023/03/20 06:22:08;;;;;;;44.70;40.00;;;;;;;6.49;65.70;97897.05;108865;1295;22215;-85
2023/03/20 06:24:37;;;;;;;44.80;38.60;;;;;;;6.58;65.64;97897.88;108983;1295;22238;-85
2023/03/20 06:27:05;;;;;;;44.90;38.90;;;;;;;6.67;65.64;97896.84;108933;1295;22287;-85
2023/03/20 06:29:33;;;;;;;56.80;49.50;;;;;;;6.78;65.49;97899.36;108901;1295;22880;-85
2023/03/20 06:32:13;;;;;;;42.90;38.40;;;;;;;6.93;65.58;97902.52;109076;1295;22218;-84
2023/03/20 06:34:41;;;;;;;42.80;38.50;;;;;;;7.08;64.75;97903.54;108927;1295;22281;-84
2023/03/20 06:37:10;;;;;;;41.60;37.60;;;;;;;7.19;64.80;97902.83;108934;1295;22160;-84
2023/03/20 06:39:38;;;;;;;42.10;37.90;;;;;;;7.31;64.51;97900.13;109087;1295;23175;-84
2023/03/20 06:42:09;;;;;;;40.60;36.60;;;;;;;7.40;64.72;97903.52;109100;1295;22215;-84
2023/03/20 06:44:38;;;;;;;41.80;37.50;;;;;;;7.49;64.77;97904.42;108894;1295;22192;-84
2023/03/20 06:47:23;;;;;;;42.70;38.30;;;;;;;7.57;64.41;97910.10;108907;1295;22100;-83
2023/03/20 06:49:51;;;;;;;48.90;40.50;;;;;;;7.60;63.87;97910.41;109110;1295;22134;-84
2023/03/20 06:52:21;;;;;;;44.90;40.30;;;;;;;7.58;63.97;97910.04;109222;1295;22819;-85
2023/03/20 06:54:58;;;;;;;46.80;41.80;;;;;;;7.60;63.73;97908.69;108936;1295;22228;-85
2023/03/20 06:57:26;;;;;;;48.40;43.30;;;;;;;7.58;63.47;97912.55;108937;1295;22251;-85
2023/03/20 06:59:54;;;;;;;49.20;43.90;;;;;;;7.54;63.23;97915.32;108864;1295;22217;-85
2023/03/20 07:02:23;;;;;;;48.00;42.80;;;;;;;7.50;63.21;97916.60;108959;1295;22212;-85
2023/03/20 07:04:51;;;;;;;46.30;41.30;;;;;;;7.45;63.29;97912.81;108965;1289;22230;-85
2023/03/20 07:07:19;;;;;;;45.20;37.90;;;;;;;7.46;63.38;97915.91;108942;1295;22228;-85
2023/03/20 07:09:48;;;;;;;44.20;39.70;;;;;;;7.48;63.19;97918.31;109121;1295;22214;-85
2023/03/20 07:12:18;;;;;;;44.10;38.30;;;;;;;7.48;63.25;97920.73;108955;1295;22303;-85
2023/03/20 07:14:46;;;;;;;39.60;35.70;;;;;;;7.51;63.07;97920.39;109113;1295;22189;-85
2023/03/20 07:17:19;;;;;;;40.20;36.10;;;;;;;7.55;63.00;97922.73;109014;1295;22963;-86
2023/03/20 07:19:47;;;;;;;39.80;35.50;;;;;;;7.59;62.65;97921.51;108980;1295;22230;-85
2023/03/20 07:22:21;;;;;;;36.10;32.20;;;;;;;7.64;62.68;97927.42;108903;1295;22232;-85
2023/03/20 07:24:51;;;;;;;38.20;34.00;;;;;;;7.68;62.53;97931.86;108951;1295;22228;-85
2023/03/20 07:27:21;;;;;;;39.60;32.90;;;;;;;7.73;62.32;97928.34;109104;1295;22219;-85
2023/03/20 07:29:52;;;;;;;36.90;33.30;;;;;;;7.80;62.35;97933.17;108939;1295;22132;-85
2023/03/20 07:32:20;;;;;;;38.70;34.60;;;;;;;7.84;62.09;97928.95;108953;1295;22229;-85
2023/03/20 07:34:50;;;;;;;35.80;32.00;;;;;;;7.93;62.08;97933.55;109123;1295;22190;-83
2023/03/20 07:37:19;;;;;;;39.80;35.60;;;;;;;8.02;61.85;97928.45;109107;1295;22187;-86
2023/03/20 07:39:57;;;;;;;40.10;36.10;;;;;;;8.15;61.88;97931.39;108907;1295;22237;-85
2023/03/20 07:42:30;;;;;;;38.70;34.80;;;;;;;8.29;61.78;97930.98;109114;1295;22147;-85
2023/03/20 07:45:01;;;;;;;43.10;38.60;;;;;;;8.45;61.79;97934.11;108880;1295;22222;-85
2023/03/20 07:47:30;;;;;;;41.50;37.10;;;;;;;8.57;61.80;97935.31;109119;1295;22355;-87
2023/03/20 07:49:58;;;;;;;40.30;36.00;;;;;;;8.60;61.73;97936.56;109375;1295;22440;-85
2023/03/20 07:52:26;;;;;;;38.40;34.40;;;;;;;8.64;61.98;97941.80;109220;1295;22176;-86
2023/03/20 07:54:54;;;;;;;39.40;35.50;;;;;;;8.72;61.55;97940.11;109008;1295;22958;-85
2023/03/20 07:57:22;;;;;;;39.30;35.40;;;;;;;8.76;61.99;97936.14;109119;1295;22120;-84
2023/03/20 07:59:51;;;;;;;40.40;36.40;;;;;;;8.79;61.43;97931.47;109131;1295;23096;-85
2023/03/20 08:02:19;;;;;;;39.60;35.60;;;;;;;8.84;61.59;97934.33;108990;1282;22222;-85
2023/03/20 08:04:47;;;;;;;40.50;36.40;;;;;;;8.91;62.06;97934.95;108938;1295;22134;-85
2023/03/20 08:07:15;;;;;;;39.30;34.60;;;;;;;9.01;62.05;97934.67;108949;1295;22238;-85
2023/03/20 08:09:45;;;;;;;35.50;32.00;;;;;;;9.13;62.18;97939.27;108921;1295;22300;-85
2023/03/20 08:12:13;;;;;;;37.80;34.10;;;;;;;9.19;62.11;97935.36;109115;1276;22375;-85
2023/03/20 08:14:42;;;;;;;36.70;33.30;;;;;;;9.19;62.52;97933.85;108990;1295;22887;-85
2023/03/20 08:17:11;;;;;;;34.30;30.80;;;;;;;9.25;62.77;97934.84;109150;1295;22952;-85
2023/03/20 08:19:43;;;;;;;36.20;32.60;;;;;;;9.32;63.35;97936.00;109042;1295;22230;-85
2023/03/20 08:22:11;;;;;;;38.70;34.80;;;;;;;9.34;63.41;97938.55;109040;1295;22976;-86
2023/03/20 08:24:40;;;;;;;43.70;38.90;;;;;;;9.43;63.70;97933.00;109023;1295;22228;-85
2023/03/20 08:27:08;;;;;;;45.50;40.30;;;;;;;9.54;63.67;97936.39;109052;1295;22153;-86
2023/03/20 08:29:36;;;;;;;42.60;38.50;;;;;;;9.67;63.43;97938.80;109037;1295;22206;-85
2023/03/20 08:32:05;;;;;;;43.90;39.60;;;;;;;9.75;63.49;97939.71;109199;1295;22146;-86
2023/03/20 08:34:35;;;;;;;45.20;40.40;;;;;;;9.83;63.36;97946.48;109025;1295;22887;-85
2023/03/20 08:37:04;;;;;;;41.50;37.10;;;;;;;9.90;63.42;97943.46;109067;1295;23018;-85
2023/03/20 08:39:32;;;;;;;45.20;37.00;;;;;;;9.95;63.71;97939.99;109031;1295;22225;-87
2023/03/20 08:42:00;;;;;;;42.40;38.00;;;;;;;10.03;63.65;97940.23;109020;1295;22238;-87
2023/03/20 08:44:28;;;;;;;45.30;40.70;;;;;;;10.13;63.84;97935.23;109020;1295;22231;-87
2023/03/20 08:46:57;;;;;;;49.30;44.50;;;;;;;10.22;63.76;97939.45;109106;1295;22246;-86
2023/03/20 08:49:25;;;;;;;41.60;37.40;;;;;;;10.37;63.80;97937.06;109116;1295;22207;-85
2023/03/20 08:51:53;;;;;;;44.90;40.20;;;;;;;10.52;63.76;97937.66;109348;1295;22148;-88
2023/03/20 08:54:21;;;;;;;43.40;38.90;;;;;;;10.65;63.88;97936.40;109360;1295;23051;-87
2023/03/20 08:56:49;;;;;;;42.30;37.90;;;;;;;10.70;64.11;97933.61;109094;1295;22213;-86
2023/03/20 08:59:18;;;;;;;37.80;34.00;;;;;;;10.83;64.40;97935.05;109118;1295;22197;-88
2023/03/20 09:01:46;;;;;;;34.20;31.00;;;;;;;10.89;64.85;97936.10;109132;1286;22180;-86
2023/03/20 09:04:17;;;;;;;37.10;33.50;;;;;;;10.96;65.24;97939.48;109086;1295;22242;-88
2023/03/20 09:06:46;;;;;;;35.50;32.10;;;;;;;11.01;65.43;97937.38;108970;1295;22264;-85
2023/03/20 09:09:17;;;;;;;35.70;32.10;;;;;;;11.10;65.11;97939.57;109000;1295;22174;-87
2023/03/20 09:11:45;;;;;;;43.10;33.80;;;;;;;11.14;64.69;97937.61;109093;1295;22959;-89
2023/03/20 09:14:14;;;;;;;35.60;32.10;;;;;;;11.15;64.78;97942.98;108918;1295;22253;-87
2023/03/20 09:16:42;;;;;;;39.00;34.90;;;;;;;11.19;64.90;97938.53;109090;1295;22786;-88
2023/03/20 09:19:10;;;;;;;39.90;36.00;;;;;;;11.27;64.45;97937.23;109025;1291;22322;-86
2023/03/20 09:21:38;;;;;;;41.90;37.70;;;;;;;11.40;64.34;97936.19;109013;1295;22224;-87
2023/03/20 09:24:06;;;;;;;37.10;33.60;;;;;;;11.42;64.19;97934.91;109136;1295;22264;-86
2023/03/20 09:26:34;;;;;;;38.00;34.30;;;;;;;11.42;64.25;97931.20;108995;1295;22203;-86
2023/03/20 09:29:03;;;;;;;39.80;35.90;;;;;;;11.41;64.25;97926.86;108979;1295;22192;-86
2023/03/20 09:31:31;;;;;;;37.20;33.40;;;;;;;11.35;64.16;97928.42;108906;1295;22119;-85
2023/03/20 09:33:59;;;;;;;42.70;33.90;;;;;;;11.34;64.01;97934.06;109003;1295;23060;-85
2023/03/20 09:36:27;;;;;;;36.00;32.50;;;;;;;11.26;64.17;97938.33;108916;1295;22259;-86
2023/03/20 09:38:55;;;;;;;42.50;38.10;;;;;;;11.23;64.05;97938.50;108986;1295;22273;-86
2023/03/20 09:41:35;;;;;;;36.30;32.60;;;;;;;11.19;64.13;97941.98;108990;1295;22235;-84
2023/03/20 09:44:37;;;;;;;35.80;32.10;;;;;;;11.18;64.36;97946.38;108918;1295;22248;-84
2023/03/20 09:47:30;;;;;;;35.80;32.30;;;;;;;11.19;64.43;97940.52;108894;1295;22229;-83
2023/03/20 09:50:22;;;;;;;38.00;34.30;;;;;;;11.19;64.49;97937.56;108967;1295;22361;-83
2023/03/20 09:53:29;;;;;;;38.10;34.20;;;;;;;11.19;64.71;97937.95;108975;1292;22216;-84
2023/03/20 09:55:59;;;;;;;35.80;32.20;;;;;;;11.21;64.81;97933.38;108979;1295;23000;-84
2023/03/20 09:58:32;;;;;;;33.70;30.70;;;;;;;11.21;64.92;97940.48;108953;1295;22249;-84
2023/03/20 10:01:05;;;;;;;37.90;34.10;;;;;;;11.22;65.24;97938.36;108982;1295;23005;-85
2023/03/20 10:03:54;;;;;;;36.50;32.90;;;;;;;11.22;65.36;97939.27;108977;1296;22780;-85
2023/03/20 10:06:22;;;;;;;38.20;34.60;;;;;;;11.20;65.82;97939.95;108954;1295;22141;-85
2023/03/20 10:08:50;;;;;;;35.80;32.60;;;;;;;11.26;67.42;97937.41;109116;1295;22454;-84
2023/03/20 10:11:28;;;;;;;36.90;33.20;;;;;;;11.31;67.48;97937.52;108989;1295;22209;-84
2023/03/20 10:14:20;;;;;;;36.60;33.00;;;;;;;11.37;67.43;97935.94;108901;1295;22145;-84
2023/03/20 10:16:51;;;;;;;31.80;28.70;;;;;;;11.41;67.28;97933.21;108956;1295;22416;-83
2023/03/20 10:19:27;;;;;;;31.80;28.60;;;;;;;11.45;67.08;97931.80;108885;1295;22239;-84
2023/03/20 10:22:13;;;;;;;33.70;30.50;;;;;;;11.52;67.88;97932.55;109005;1295;22259;-84
2023/03/20 10:24:49;;;;;;;33.90;30.60;;;;;;;11.52;67.98;97938.52;108817;1295;181869;-84
2023/03/20 10:27:27;;;;;;;35.80;32.20;;;;;;;11.54;67.93;97939.39;108983;1295;22846;-84
2023/03/20 10:30:20;;;;;;;35.60;31.80;;;;;;;11.56;68.27;97942.50;108975;1295;22220;-85
2023/03/20 10:33:17;;;;;;;33.90;30.40;;;;;;;11.54;69.04;97941.84;108960;1295;22203;-84
2023/03/20 10:36:11;;;;;;;35.30;31.50;;;;;;;11.61;69.60;97936.13;108849;1295;22287;-84
2023/03/20 10:38:48;;;;;;;36.60;33.20;;;;;;;11.76;69.69;97931.41;108915;1295;22246;-85
2023/03/20 10:41:20;;;;;;;35.30;31.70;;;;;;;12.15;69.30;97928.02;109019;1295;22971;-85
2023/03/20 10:43:51;;;;;;;42.00;33.80;;;;;;;12.49;68.43;97923.73;108909;1295;22152;-85
2023/03/20 10:46:42;;;;;;;36.20;32.90;;;;;;;12.66;68.38;97925.16;109001;1285;22298;-85
2023/03/20 10:49:27;;;;;;;37.90;34.30;;;;;;;12.65;67.91;97921.88;108911;1295;22235;-85
2023/03/20 10:52:01;;;;;;;37.60;34.00;;;;;;;12.63;67.95;97919.99;108975;1295;22297;-85
2023/03/20 10:54:34;;;;;;;39.60;35.70;;;;;;;12.55;68.12;97919.38;108988;1295;22238;-85
2023/03/20 10:57:05;;;;;;;38.70;34.90;;;;;;;12.54;68.19;97914.77;108979;1295;22207;-85
2023/03/20 10:59:41;;;;;;;48.50;40.90;;;;;;;12.72;68.21;97907.26;108930;1295;22154;-85
2023/03/20 11:02:11;;;;;;;55.50;46.00;;;;;;;12.94;68.72;97906.97;108920;1295;22293;-84
2023/03/20 11:04:40;;;;;;;35.40;32.20;;;;;;;12.99;69.04;97912.24;108989;1295;22252;-85
2023/03/20 11:07:10;;;;;;;38.50;34.70;;;;;;;12.89;68.78;97905.60;108970;1296;22231;-85
2023/03/20 11:09:39;;;;;;;39.60;35.60;;;;;;;12.82;68.82;97907.39;108981;1295;22271;-85
2023/03/20 11:12:16;;;;;;;37.60;33.80;;;;;;;12.67;68.80;97909.61;108970;1295;22959;-85
2023/03/20 11:14:45;;;;;;;35.70;32.30;;;;;;;12.54;69.32;97907.74;108982;1295;22924;-84
2023/03/20 11:17:15;;;;;;;37.00;33.30;;;;;;;12.43;69.24;97907.64;108972;1295;22950;-85
2023/03/20 11:19:43;;;;;;;32.30;29.00;;;;;;;12.31;69.84;97911.22;108963;1295;22146;-84
2023/03/20 11:22:20;;;;;;;34.00;30.60;;;;;;;12.23;70.08;97906.59;108972;1295;22965;-85
2023/03/20 11:24:54;;;;;;;39.30;34.60;;;;;;;12.22;70.81;97905.38;108979;1295;22181;-84
2023/03/20 11:27:34;;;;;;;47.40;41.00;;;;;;;12.26;70.81;97901.34;108958;1295;22224;-84
2023/03/20 11:30:06;;;;;;;33.30;30.00;;;;;;;12.26;70.82;97899.59;108972;1295;22218;-84
2023/03/20 11:32:48;;;;;;;36.90;33.40;;;;;;;12.24;71.46;97898.71;108960;1295;22305;-85
2023/03/20 11:35:30;;;;;;;35.00;31.60;;;;;;;12.15;71.90;97898.53;109112;1295;22283;-84
2023/03/20 11:38:16;;;;;;;34.60;31.20;;;;;;;12.08;72.25;97892.77;108980;1295;22219;-84
2023/03/20 11:40:51;;;;;;;35.20;31.30;;;;;;;12.16;72.42;97893.36;108975;1295;22244;-84
2023/03/20 11:43:23;;;;;;;;;;;;;;;12.24;71.93;97885.02;108977;1295;22388;-84
2023/03/20 11:45:56;;;;;;;38.90;35.10;;;;;;;12.36;71.87;97884.60;108962;1285;22256;-84
2023/03/20 11:48:36;;;;;;;40.00;36.00;;;;;;;12.46;71.81;97877.19;108967;1295;22233;-83
2023/03/20 11:51:09;;;;;;;37.30;33.60;;;;;;;12.61;71.24;97873.33;108966;1296;22215;-84